Nord Innovation — 3EYC5 — position and weather

sailwx.info

Track history (hours):
 
Tides and Currents Weather Stations Pressure Air Temp Water Temp Dewpoint Dewpoint Depression Visibility Wind Speed Wind Dir Waves Ship Positions

Nord Innovation

Last reported at 2017-Sep-13 01:54 UTC. Time now 2017-Sep-21 12:15 UTC.
Position N 29°23' W 094°53'.
Warning: this ship's position is 8 days out of date.

Length 180 m; draft 7.6 m.

Type: Tanker. MMSI: 370756000.

Date/timePositionNaut miles runAvg speedWind from/ knotsBaromVisibWave heightAir tempDewpointWater temp
2017-Sep-13 01:54N 29°23' W 094°53'1 0.1
2017-Sep-12 13:49N 29°22' W 094°53'0 0.0
2017-Sep-12 13:28N 29°22' W 094°53'0 0.0
2017-Sep-12 12:58N 29°22' W 094°53'0 0.0
2017-Sep-12 12:13N 29°22' W 094°53'0 0.0
2017-Sep-12 11:58N 29°22' W 094°53'1 0.0
2017-Sep-10 09:16N 29°23' W 094°53'2 5.9
2017-Sep-10 09:01N 29°23' W 094°51'5 9.8
2017-Sep-10 08:31N 29°21' W 094°46'9 0.2
2017-Sep-08 13:29N 29°28' W 094°51'611.7
2017-Sep-08 13:00N 29°33' W 094°55'611.7
2017-Sep-08 12:30N 29°38' W 094°58'510.3
2017-Sep-08 12:00N 29°43' W 095°01'1 2.1
2017-Sep-08 11:26N 29°44' W 095°01'0 0.0
2017-Sep-08 10:50N 29°44' W 095°01'0 0.0
2017-Sep-08 10:26N 29°44' W 095°01'0 0.0
2017-Sep-08 09:59N 29°44' W 095°01'0 0.0
2017-Sep-08 09:26N 29°44' W 095°01'0 0.0
2017-Sep-08 08:56N 29°44' W 095°01'0 0.0
2017-Sep-08 08:26N 29°44' W 095°01'0 0.0
2017-Sep-08 07:59N 29°44' W 095°01'0 0.0
2017-Sep-08 07:26N 29°44' W 095°01'0 0.0
2017-Sep-08 06:56N 29°44' W 095°01'0 0.0
2017-Sep-08 06:26N 29°44' W 095°01'0 0.0
2017-Sep-08 05:59N 29°44' W 095°01'0 0.0
2017-Sep-08 05:26N 29°44' W 095°01'0 0.0
2017-Sep-08 04:56N 29°44' W 095°01'0 0.0
2017-Sep-08 04:23N 29°44' W 095°01'0 0.0
2017-Sep-08 03:56N 29°44' W 095°01'0 0.0
2017-Sep-08 03:26N 29°44' W 095°01'0 0.0
2017-Sep-08 02:56N 29°44' W 095°01'0 0.0
2017-Sep-08 02:20N 29°44' W 095°01'0 0.0
2017-Sep-07 23:56N 29°44' W 095°01'0 0.0
2017-Sep-07 23:17N 29°44' W 095°01'0 0.0
2017-Sep-07 22:44N 29°44' W 095°01'0 0.0
2017-Sep-07 22:20N 29°44' W 095°01'0 0.0
2017-Sep-07 21:56N 29°44' W 095°01'0 0.0
2017-Sep-07 21:26N 29°44' W 095°01'0 0.0
2017-Sep-07 20:50N 29°44' W 095°01'0 0.0
2017-Sep-07 20:08N 29°44' W 095°01'0 0.0
2017-Sep-07 19:56N 29°44' W 095°01'0 0.0
2017-Sep-07 19:26N 29°44' W 095°01'0 0.0
2017-Sep-07 18:38N 29°44' W 095°01'0 0.0
2017-Sep-07 18:26N 29°44' W 095°01'0 0.0
2017-Sep-07 17:50N 29°44' W 095°01'0 0.0
2017-Sep-07 17:08N 29°44' W 095°01'0 0.0
2017-Sep-07 16:50N 29°44' W 095°01'0 0.0
2017-Sep-07 16:26N 29°44' W 095°01'0 0.0
2017-Sep-07 15:56N 29°44' W 095°01'0 0.0
2017-Sep-07 14:44N 29°44' W 095°01'0 0.0
2017-Sep-07 14:26N 29°44' W 095°01'0 0.0
2017-Sep-07 13:50N 29°44' W 095°01'0 0.0
2017-Sep-07 05:38N 29°44' W 095°01'0 0.0
2017-Sep-07 05:29N 29°44' W 095°01'0 0.0
2017-Sep-07 02:26N 29°44' W 095°01'0 0.0
2017-Sep-07 01:05N 29°44' W 095°01'0 0.0
2017-Sep-06 23:38N 29°44' W 095°01'0 0.0
2017-Sep-06 23:17N 29°44' W 095°01'0 0.0
2017-Sep-06 21:14N 29°44' W 095°01'0 0.0
2017-Sep-06 20:50N 29°44' W 095°01'0 0.0
2017-Sep-06 20:26N 29°44' W 095°01'0 0.0
2017-Sep-06 09:50N 29°44' W 095°01'0 0.0
2017-Sep-06 09:23N 29°44' W 095°01'0 0.0
2017-Sep-06 08:53N 29°44' W 095°01'0 0.0
2017-Sep-06 08:26N 29°44' W 095°01'0 0.0
2017-Sep-06 07:23N 29°44' W 095°01'0 0.0
2017-Sep-06 06:59N 29°44' W 095°01'0 0.0
2017-Sep-06 06:23N 29°44' W 095°01'0 0.0
2017-Sep-06 05:53N 29°44' W 095°01'0 0.0
2017-Sep-06 05:29N 29°44' W 095°01'0 0.0
2017-Sep-06 04:35N 29°44' W 095°01'0 0.0
2017-Sep-06 04:29N 29°44' W 095°01'0 0.0
2017-Sep-06 03:59N 29°44' W 095°01'0 0.0
2017-Sep-06 03:23N 29°44' W 095°01'0 0.0
2017-Sep-06 02:59N 29°44' W 095°01'0 0.0
2017-Sep-06 02:23N 29°44' W 095°01'0 0.0
2017-Sep-06 01:59N 29°44' W 095°01'0 0.0
2017-Sep-06 01:23N 29°44' W 095°01'0 0.0
2017-Sep-06 00:59N 29°44' W 095°01'0 0.0
2017-Sep-06 00:29N 29°44' W 095°01'0 0.0
2017-Sep-05 23:53N 29°44' W 095°01'0 0.0
2017-Sep-05 23:29N 29°44' W 095°01'0 0.0
2017-Sep-05 22:35N 29°44' W 095°01'0 0.0
2017-Sep-05 22:23N 29°44' W 095°01'0 0.0
2017-Sep-05 21:59N 29°44' W 095°01'0 0.0
2017-Sep-05 20:53N 29°44' W 095°01'0 0.0
2017-Sep-05 20:05N 29°44' W 095°01'0 0.1
2017-Sep-05 19:59N 29°44' W 095°01'0 0.0
2017-Sep-05 18:47N 29°44' W 095°01'0 0.0
2017-Sep-05 18:23N 29°44' W 095°01'0 0.0
2017-Sep-05 17:59N 29°44' W 095°01'0 0.0
2017-Sep-05 17:23N 29°44' W 095°01'0 0.0
2017-Sep-05 16:59N 29°44' W 095°01'0 0.0
2017-Sep-05 16:29N 29°44' W 095°01'0 0.0
2017-Sep-05 15:11N 29°44' W 095°01'0 0.0
2017-Sep-05 14:59N 29°44' W 095°01'0 0.0
2017-Sep-05 14:23N 29°44' W 095°01'0 0.0
2017-Sep-05 13:53N 29°44' W 095°01'0 0.0
2017-Sep-05 13:23N 29°44' W 095°01'0 0.0
2017-Sep-05 12:53N 29°44' W 095°01'0 0.0
2017-Sep-05 12:29N 29°44' W 095°01'0 0.0
2017-Sep-05 11:59N 29°44' W 095°01'0 0.0
2017-Sep-05 11:29N 29°44' W 095°01'0 0.0
2017-Sep-05 10:47N 29°44' W 095°01'0 0.0
2017-Sep-05 10:29N 29°44' W 095°01'0 0.0
2017-Sep-05 09:59N 29°44' W 095°01'0 0.0
2017-Sep-05 09:29N 29°44' W 095°01'0 0.0
2017-Sep-05 08:59N 29°44' W 095°01'0 0.0
2017-Sep-05 08:17N 29°44' W 095°01'0 0.0
2017-Sep-05 07:41N 29°44' W 095°01'0 0.0
2017-Sep-05 07:23N 29°44' W 095°01'0 0.0
2017-Sep-05 06:59N 29°44' W 095°01'0 0.0
2017-Sep-05 06:23N 29°44' W 095°01'0 0.0
2017-Sep-05 06:00N 29°44' W 095°01'0 1.0
2017-Sep-05 05:30N 29°43' W 095°01'3 5.8
2017-Sep-05 05:00N 29°41' W 094°59'5 9.4
2017-Sep-05 04:30N 29°37' W 094°57'5 9.7
2017-Sep-05 04:00N 29°33' W 094°54'5 9.8
2017-Sep-05 03:30N 29°28' W 094°51'5 9.2
2017-Sep-05 03:00N 29°24' W 094°49'4 8.4
2017-Sep-05 02:30N 29°21' W 094°46'  
Track history (hours):
 
Tides and Currents Weather Stations Pressure Air Temp Water Temp Dewpoint Dewpoint Depression Visibility Wind Speed Wind Dir Waves Ship Positions

Nord Innovation

Last reported at 2017-Sep-13 01:54 UTC. Time now 2017-Sep-21 12:15 UTC.
Position N 29°23' W 094°53'.
Warning: this ship's position is 8 days out of date.

Length 180 m; draft 7.6 m.

Type: Tanker. MMSI: 370756000.

Date/timePositionNaut miles runAvg speedWind from/ knotsBaromVisibWave heightAir tempDewpointWater temp
2017-Sep-13 01:54N 29°23' W 094°53'1 0.1
2017-Sep-12 13:49N 29°22' W 094°53'0 0.0
2017-Sep-12 13:28N 29°22' W 094°53'0 0.0
2017-Sep-12 12:58N 29°22' W 094°53'0 0.0
2017-Sep-12 12:13N 29°22' W 094°53'0 0.0
2017-Sep-12 11:58N 29°22' W 094°53'1 0.0
2017-Sep-10 09:16N 29°23' W 094°53'2 5.9
2017-Sep-10 09:01N 29°23' W 094°51'5 9.8
2017-Sep-10 08:31N 29°21' W 094°46'9 0.2
2017-Sep-08 13:29N 29°28' W 094°51'611.7
2017-Sep-08 13:00N 29°33' W 094°55'611.7
2017-Sep-08 12:30N 29°38' W 094°58'510.3
2017-Sep-08 12:00N 29°43' W 095°01'1 2.1
2017-Sep-08 11:26N 29°44' W 095°01'0 0.0
2017-Sep-08 10:50N 29°44' W 095°01'0 0.0
2017-Sep-08 10:26N 29°44' W 095°01'0 0.0
2017-Sep-08 09:59N 29°44' W 095°01'0 0.0
2017-Sep-08 09:26N 29°44' W 095°01'0 0.0
2017-Sep-08 08:56N 29°44' W 095°01'0 0.0
2017-Sep-08 08:26N 29°44' W 095°01'0 0.0
2017-Sep-08 07:59N 29°44' W 095°01'0 0.0
2017-Sep-08 07:26N 29°44' W 095°01'0 0.0
2017-Sep-08 06:56N 29°44' W 095°01'0 0.0
2017-Sep-08 06:26N 29°44' W 095°01'0 0.0
2017-Sep-08 05:59N 29°44' W 095°01'0 0.0
2017-Sep-08 05:26N 29°44' W 095°01'0 0.0
2017-Sep-08 04:56N 29°44' W 095°01'0 0.0
2017-Sep-08 04:23N 29°44' W 095°01'0 0.0
2017-Sep-08 03:56N 29°44' W 095°01'0 0.0
2017-Sep-08 03:26N 29°44' W 095°01'0 0.0
2017-Sep-08 02:56N 29°44' W 095°01'0 0.0
2017-Sep-08 02:20N 29°44' W 095°01'0 0.0
2017-Sep-07 23:56N 29°44' W 095°01'0 0.0
2017-Sep-07 23:17N 29°44' W 095°01'0 0.0
2017-Sep-07 22:44N 29°44' W 095°01'0 0.0
2017-Sep-07 22:20N 29°44' W 095°01'0 0.0
2017-Sep-07 21:56N 29°44' W 095°01'0 0.0
2017-Sep-07 21:26N 29°44' W 095°01'0 0.0
2017-Sep-07 20:50N 29°44' W 095°01'0 0.0
2017-Sep-07 20:08N 29°44' W 095°01'0 0.0
2017-Sep-07 19:56N 29°44' W 095°01'0 0.0
2017-Sep-07 19:26N 29°44' W 095°01'0 0.0
2017-Sep-07 18:38N 29°44' W 095°01'0 0.0
2017-Sep-07 18:26N 29°44' W 095°01'0 0.0
2017-Sep-07 17:50N 29°44' W 095°01'0 0.0
2017-Sep-07 17:08N 29°44' W 095°01'0 0.0
2017-Sep-07 16:50N 29°44' W 095°01'0 0.0
2017-Sep-07 16:26N 29°44' W 095°01'0 0.0
2017-Sep-07 15:56N 29°44' W 095°01'0 0.0
2017-Sep-07 14:44N 29°44' W 095°01'0 0.0
2017-Sep-07 14:26N 29°44' W 095°01'0 0.0
2017-Sep-07 13:50N 29°44' W 095°01'0 0.0
2017-Sep-07 05:38N 29°44' W 095°01'0 0.0
2017-Sep-07 05:29N 29°44' W 095°01'0 0.0
2017-Sep-07 02:26N 29°44' W 095°01'0 0.0
2017-Sep-07 01:05N 29°44' W 095°01'0 0.0
2017-Sep-06 23:38N 29°44' W 095°01'0 0.0
2017-Sep-06 23:17N 29°44' W 095°01'0 0.0
2017-Sep-06 21:14N 29°44' W 095°01'0 0.0
2017-Sep-06 20:50N 29°44' W 095°01'0 0.0
2017-Sep-06 20:26N 29°44' W 095°01'0 0.0
2017-Sep-06 09:50N 29°44' W 095°01'0 0.0
2017-Sep-06 09:23N 29°44' W 095°01'0 0.0
2017-Sep-06 08:53N 29°44' W 095°01'0 0.0
2017-Sep-06 08:26N 29°44' W 095°01'0 0.0
2017-Sep-06 07:23N 29°44' W 095°01'0 0.0
2017-Sep-06 06:59N 29°44' W 095°01'0 0.0
2017-Sep-06 06:23N 29°44' W 095°01'0 0.0
2017-Sep-06 05:53N 29°44' W 095°01'0 0.0
2017-Sep-06 05:29N 29°44' W 095°01'0 0.0
2017-Sep-06 04:35N 29°44' W 095°01'0 0.0
2017-Sep-06 04:29N 29°44' W 095°01'0 0.0
2017-Sep-06 03:59N 29°44' W 095°01'0 0.0
2017-Sep-06 03:23N 29°44' W 095°01'0 0.0
2017-Sep-06 02:59N 29°44' W 095°01'0 0.0
2017-Sep-06 02:23N 29°44' W 095°01'0 0.0
2017-Sep-06 01:59N 29°44' W 095°01'0 0.0
2017-Sep-06 01:23N 29°44' W 095°01'0 0.0
2017-Sep-06 00:59N 29°44' W 095°01'0 0.0
2017-Sep-06 00:29N 29°44' W 095°01'0 0.0
2017-Sep-05 23:53N 29°44' W 095°01'0 0.0
2017-Sep-05 23:29N 29°44' W 095°01'0 0.0
2017-Sep-05 22:35N 29°44' W 095°01'0 0.0
2017-Sep-05 22:23N 29°44' W 095°01'0 0.0
2017-Sep-05 21:59N 29°44' W 095°01'0 0.0
2017-Sep-05 20:53N 29°44' W 095°01'0 0.0
2017-Sep-05 20:05N 29°44' W 095°01'0 0.1
2017-Sep-05 19:59N 29°44' W 095°01'0 0.0
2017-Sep-05 18:47N 29°44' W 095°01'0 0.0
2017-Sep-05 18:23N 29°44' W 095°01'0 0.0
2017-Sep-05 17:59N 29°44' W 095°01'0 0.0
2017-Sep-05 17:23N 29°44' W 095°01'0 0.0
2017-Sep-05 16:59N 29°44' W 095°01'0 0.0
2017-Sep-05 16:29N 29°44' W 095°01'0 0.0
2017-Sep-05 15:11N 29°44' W 095°01'0 0.0
2017-Sep-05 14:59N 29°44' W 095°01'0 0.0
2017-Sep-05 14:23N 29°44' W 095°01'0 0.0
2017-Sep-05 13:53N 29°44' W 095°01'0 0.0
2017-Sep-05 13:23N 29°44' W 095°01'0 0.0
2017-Sep-05 12:53N 29°44' W 095°01'0 0.0
2017-Sep-05 12:29N 29°44' W 095°01'0 0.0
2017-Sep-05 11:59N 29°44' W 095°01'0 0.0
2017-Sep-05 11:29N 29°44' W 095°01'0 0.0
2017-Sep-05 10:47N 29°44' W 095°01'0 0.0
2017-Sep-05 10:29N 29°44' W 095°01'0 0.0
2017-Sep-05 09:59N 29°44' W 095°01'0 0.0
2017-Sep-05 09:29N 29°44' W 095°01'0 0.0
2017-Sep-05 08:59N 29°44' W 095°01'0 0.0
2017-Sep-05 08:17N 29°44' W 095°01'0 0.0
2017-Sep-05 07:41N 29°44' W 095°01'0 0.0
2017-Sep-05 07:23N 29°44' W 095°01'0 0.0
2017-Sep-05 06:59N 29°44' W 095°01'0 0.0
2017-Sep-05 06:23N 29°44' W 095°01'0 0.0
2017-Sep-05 06:00N 29°44' W 095°01'0 1.0
2017-Sep-05 05:30N 29°43' W 095°01'3 5.8
2017-Sep-05 05:00N 29°41' W 094°59'5 9.4
2017-Sep-05 04:30N 29°37' W 094°57'5 9.7
2017-Sep-05 04:00N 29°33' W 094°54'5 9.8
2017-Sep-05 03:30N 29°28' W 094°51'5 9.2
2017-Sep-05 03:00N 29°24' W 094°49'4 8.4
2017-Sep-05 02:30N 29°21' W 094°46'  

Dump ship's entire track history